createdAt,value
2023-05-18T00:00:36.978Z,79.68
2023-05-18T00:04:17.355Z,79.61
2023-05-18T00:07:53.314Z,79.53
2023-05-18T00:11:30.170Z,79.76
2023-05-18T00:15:08.371Z,79.42
2023-05-18T00:18:46.319Z,79.26
2023-05-18T00:22:23.104Z,79.36
2023-05-18T00:26:01.987Z,79.42
2023-05-18T00:29:38.461Z,79.37
2023-05-18T00:33:16.121Z,79.32
2023-05-18T00:36:53.963Z,79.50
2023-05-18T00:40:31.814Z,79.18
2023-05-18T00:44:09.008Z,79.00
2023-05-18T00:47:47.443Z,78.81
2023-05-18T00:51:25.499Z,78.48
2023-05-18T00:55:02.398Z,78.30
2023-05-18T00:58:41.516Z,78.24
2023-05-18T01:02:17.748Z,78.17
2023-05-18T01:05:58.144Z,78.17
2023-05-18T01:09:33.609Z,78.21
2023-05-18T01:13:15.043Z,78.27
2023-05-18T01:17:10.652Z,78.37
2023-05-18T01:20:39.542Z,78.78
2023-05-18T01:24:26.097Z,78.95
2023-05-18T01:27:46.649Z,78.79
2023-05-18T01:31:19.003Z,78.92
2023-05-18T01:34:56.688Z,79.11
2023-05-18T01:38:35.582Z,79.11
2023-05-18T01:42:17.619Z,79.09
2023-05-18T01:45:55.686Z,79.01
2023-05-18T01:49:43.154Z,79.74
2023-05-18T01:53:21.757Z,80.19
2023-05-18T01:56:44.896Z,80.32
2023-05-18T02:00:22.412Z,80.25
2023-05-18T02:03:58.255Z,80.09
2023-05-18T02:07:35.643Z,79.79
2023-05-18T02:11:13.391Z,79.53
2023-05-18T02:14:51.251Z,79.30
2023-05-18T02:18:28.833Z,79.03
2023-05-18T02:22:07.208Z,78.68
2023-05-18T02:25:44.807Z,78.58
2023-05-18T02:29:21.649Z,78.51
2023-05-18T02:32:59.762Z,78.24
2023-05-18T02:36:40.449Z,78.06
2023-05-18T02:40:16.394Z,77.79
2023-05-18T02:43:52.309Z,77.52
2023-05-18T02:47:30.310Z,77.54
2023-05-18T02:51:07.941Z,77.53
2023-05-18T02:54:45.573Z,77.50
2023-05-18T02:58:25.738Z,77.36
2023-05-18T03:02:01.499Z,77.26
2023-05-18T03:05:38.516Z,77.45
2023-05-18T03:09:16.789Z,77.68
2023-05-18T03:12:53.996Z,77.63
2023-05-18T03:16:31.730Z,77.59
2023-05-18T03:20:15.321Z,77.60
2023-05-18T03:23:46.777Z,78.08
2023-05-18T03:27:27.698Z,78.49
2023-05-18T03:31:02.679Z,78.78
2023-05-18T03:34:39.938Z,78.66
2023-05-18T03:38:17.614Z,78.69
2023-05-18T03:41:59.544Z,78.77
2023-05-18T03:45:32.817Z,78.81
2023-05-18T03:49:10.461Z,78.91
2023-05-18T03:52:48.113Z,79.09
2023-05-18T03:56:26.231Z,79.30
2023-05-18T04:00:09.403Z,79.27
2023-05-18T04:03:42.743Z,79.43
2023-05-18T04:07:22.163Z,79.63
2023-05-18T04:10:56.911Z,79.62
2023-05-18T04:14:35.381Z,79.54
2023-05-18T04:18:14.601Z,79.45
2023-05-18T04:21:49.678Z,79.73
2023-05-18T04:25:28.709Z,79.63
2023-05-18T04:29:04.966Z,79.43
2023-05-18T04:32:43.390Z,79.40
2023-05-18T04:36:21.327Z,79.32
2023-05-18T04:39:58.906Z,79.19
2023-05-18T04:43:36.646Z,78.89
2023-05-18T04:47:13.327Z,78.92
2023-05-18T04:50:54.382Z,78.85
2023-05-18T04:54:32.999Z,78.76
2023-05-18T04:58:06.245Z,78.53
2023-05-18T05:01:44.730Z,77.97
2023-05-18T05:05:26.083Z,77.69
2023-05-18T05:08:59.300Z,76.84
2023-05-18T05:12:41.616Z,76.29
2023-05-18T05:16:14.938Z,75.37
2023-05-18T05:19:52.625Z,74.76
2023-05-18T05:23:30.344Z,74.14
2023-05-18T05:27:07.904Z,73.13
2023-05-18T05:30:45.842Z,72.14
2023-05-18T05:34:23.115Z,71.66
2023-05-18T05:38:00.950Z,70.36
2023-05-18T05:41:39.713Z,69.31
2023-05-18T05:45:16.424Z,68.10
2023-05-18T05:48:54.304Z,67.38
2023-05-18T05:52:32.484Z,66.02
2023-05-18T05:56:09.497Z,64.40
2023-05-18T05:59:46.875Z,62.61
2023-05-18T06:03:24.913Z,61.81
2023-05-18T06:07:02.124Z,61.31
2023-05-18T06:10:41.463Z,61.04
2023-05-18T06:14:17.755Z,60.54
2023-05-18T06:17:55.408Z,60.27
2023-05-18T06:21:33.444Z,59.46
2023-05-18T06:25:11.030Z,58.98
2023-05-18T06:28:53.478Z,58.86
2023-05-18T06:32:25.928Z,57.76
2023-05-18T06:36:04.173Z,57.14
2023-05-18T06:39:41.340Z,56.89
2023-05-18T06:43:19.071Z,56.41
2023-05-18T06:46:56.750Z,56.05
2023-05-18T06:50:34.392Z,55.98
2023-05-18T06:54:12.234Z,55.64
2023-05-18T06:57:49.918Z,55.78
2023-05-18T07:01:27.108Z,54.92
2023-05-18T07:05:09.490Z,54.12
2023-05-18T07:08:44.708Z,54.06
2023-05-18T07:12:20.881Z,53.83
2023-05-18T07:15:58.703Z,54.00
2023-05-18T07:19:35.723Z,53.45
2023-05-18T07:23:14.178Z,53.70
2023-05-18T07:26:51.248Z,53.66
2023-05-18T07:30:29.422Z,53.36
2023-05-18T07:34:06.563Z,53.19
2023-05-18T07:37:44.272Z,53.80
2023-05-18T07:41:26.405Z,53.59
2023-05-18T07:44:59.907Z,53.56
2023-05-18T07:48:39.707Z,53.39
2023-05-18T07:52:15.247Z,52.86
2023-05-18T07:55:52.756Z,53.26
2023-05-18T07:59:30.504Z,52.97
2023-05-18T08:03:08.681Z,53.04
2023-05-18T08:06:45.793Z,53.42
2023-05-18T08:10:23.086Z,53.55
2023-05-18T08:14:01.099Z,54.10
2023-05-18T08:17:38.627Z,53.68
2023-05-18T08:21:17.628Z,53.22
2023-05-18T08:24:54.833Z,53.14
2023-05-18T08:28:32.177Z,53.25
2023-05-18T08:32:09.285Z,53.01
2023-05-18T08:35:48.167Z,52.80
2023-05-18T08:39:24.652Z,53.21
2023-05-18T08:43:19.284Z,53.52
2023-05-18T08:46:48.434Z,53.79
2023-05-18T08:50:23.606Z,53.44
2023-05-18T08:53:55.572Z,53.77
2023-05-18T08:57:39.334Z,54.08
2023-05-18T09:01:12.167Z,54.49
2023-05-18T09:04:48.743Z,54.67
2023-05-18T09:08:26.923Z,54.94
2023-05-18T09:12:04.827Z,54.94
2023-05-18T09:15:41.422Z,54.76
2023-05-18T09:19:19.906Z,55.02
2023-05-18T09:22:56.803Z,55.26
2023-05-18T09:26:34.550Z,55.67
2023-05-18T09:30:12.690Z,55.84
2023-05-18T09:33:51.795Z,56.90
2023-05-18T09:37:27.689Z,56.72
2023-05-18T09:41:11.249Z,56.64
2023-05-18T09:44:42.739Z,56.65
2023-05-18T09:48:24.819Z,56.47
2023-05-18T09:52:00.250Z,56.62
2023-05-18T09:55:49.248Z,56.48
2023-05-18T09:59:15.304Z,56.52
2023-05-18T10:02:53.279Z,57.04
2023-05-18T10:06:29.513Z,57.17
2023-05-18T10:10:09.116Z,57.20
2023-05-18T10:13:47.161Z,56.84
2023-05-18T10:17:22.782Z,56.34
2023-05-18T10:21:01.533Z,55.43
2023-05-18T10:24:43.606Z,55.21
2023-05-18T10:28:25.979Z,55.03
2023-05-18T10:31:55.904Z,55.03
2023-05-18T10:35:31.592Z,54.59
2023-05-18T10:39:10.345Z,54.29
2023-05-18T10:42:46.669Z,54.59
2023-05-18T10:46:27.064Z,55.08
2023-05-18T10:50:04.523Z,54.74
2023-05-18T10:53:43.957Z,55.08
2023-05-18T10:57:21.086Z,54.45
2023-05-18T11:01:04.530Z,53.70
2023-05-18T11:04:32.185Z,54.21
2023-05-18T11:08:10.328Z,53.69
2023-05-18T11:12:01.036Z,54.57
2023-05-18T11:15:53.710Z,54.61
2023-05-18T11:19:07.443Z,54.01
2023-05-18T11:22:59.893Z,54.42
2023-05-18T11:26:17.453Z,54.74
2023-05-18T11:30:07.488Z,54.50
2023-05-18T11:33:33.238Z,53.68
2023-05-18T11:37:18.634Z,54.13
2023-05-18T11:40:52.730Z,53.46
2023-05-18T11:44:28.981Z,54.45
2023-05-18T11:48:06.158Z,53.99
2023-05-18T11:51:57.143Z,54.32
2023-05-18T11:55:20.247Z,54.94
2023-05-18T11:59:11.821Z,55.24
2023-05-18T12:02:35.178Z,55.73
2023-05-18T12:06:12.666Z,54.91
2023-05-18T12:09:50.004Z,54.63
2023-05-18T12:13:28.195Z,54.79
2023-05-18T12:17:06.754Z,54.41
2023-05-18T12:20:43.644Z,54.48
2023-05-18T12:24:21.623Z,54.12
2023-05-18T12:27:58.993Z,54.00
2023-05-18T12:31:39.719Z,54.38
2023-05-18T12:35:13.457Z,53.83
2023-05-18T12:38:54.257Z,53.38
2023-05-18T12:42:28.937Z,53.50
2023-05-18T12:46:06.489Z,53.94
2023-05-18T12:49:49.363Z,53.46
2023-05-18T12:53:21.872Z,53.53
2023-05-18T12:57:02.166Z,53.69
2023-05-18T13:00:38.201Z,53.91
2023-05-18T13:04:15.401Z,54.55
2023-05-18T13:07:52.813Z,54.21
2023-05-18T13:11:30.485Z,54.26
2023-05-18T13:15:12.100Z,54.65
2023-05-18T13:18:47.091Z,54.88
2023-05-18T13:22:23.335Z,55.16
2023-05-18T13:26:01.134Z,55.51
2023-05-18T13:29:38.495Z,55.79
2023-05-18T13:33:18.098Z,56.02
2023-05-18T13:36:54.013Z,55.53
2023-05-18T13:40:32.280Z,55.97
2023-05-18T13:44:09.728Z,56.06
2023-05-18T13:48:09.256Z,56.63
2023-05-18T13:51:25.657Z,56.67
2023-05-18T13:55:07.586Z,56.46
2023-05-18T13:58:42.080Z,56.64
2023-05-18T14:02:17.519Z,56.76
2023-05-18T14:05:55.626Z,56.72
2023-05-18T14:09:33.186Z,56.79
2023-05-18T14:13:11.094Z,57.05
2023-05-18T14:16:48.782Z,58.34
2023-05-18T14:20:26.326Z,58.59
2023-05-18T14:24:07.433Z,58.42
2023-05-18T14:27:41.500Z,58.38
2023-05-18T14:31:19.022Z,58.58
2023-05-18T14:34:58.246Z,58.57
2023-05-18T14:38:34.234Z,58.67
2023-05-18T14:42:12.557Z,59.21
2023-05-18T14:46:00.187Z,59.33
2023-05-18T14:49:27.698Z,60.18
2023-05-18T14:53:05.237Z,59.89
2023-05-18T14:56:42.816Z,59.46
2023-05-18T15:00:21.029Z,59.94
2023-05-18T15:03:58.254Z,60.23
2023-05-18T15:07:35.693Z,60.19
2023-05-18T15:11:13.622Z,59.47
2023-05-18T15:14:51.433Z,59.77
2023-05-18T15:18:29.109Z,60.12
2023-05-18T15:22:06.605Z,60.39
2023-05-18T15:25:44.665Z,60.92
2023-05-18T15:29:21.763Z,61.70
2023-05-18T15:33:18.351Z,62.67
2023-05-18T15:36:38.314Z,62.44
2023-05-18T15:40:15.174Z,61.84
2023-05-18T15:43:52.419Z,62.95
2023-05-18T15:47:30.865Z,61.95
2023-05-18T15:51:15.838Z,62.15
2023-05-18T15:54:46.265Z,62.44
2023-05-18T15:58:23.241Z,62.91
2023-05-18T16:02:01.435Z,63.64
2023-05-18T16:05:38.715Z,64.20
2023-05-18T16:09:16.676Z,64.86
2023-05-18T16:13:00.549Z,65.09
2023-05-18T16:16:32.092Z,65.71
2023-05-18T16:20:10.850Z,65.68
2023-05-18T16:23:47.591Z,65.59
2023-05-18T16:27:25.231Z,65.64
2023-05-18T16:31:08.236Z,66.00
2023-05-18T16:34:41.569Z,65.91
2023-05-18T16:38:18.626Z,66.13
2023-05-18T16:41:55.819Z,66.63
2023-05-18T16:45:33.400Z,66.43
2023-05-18T16:49:11.204Z,66.62
2023-05-18T16:52:48.512Z,66.62
2023-05-18T16:56:27.097Z,67.28
2023-05-18T17:00:07.541Z,67.40
2023-05-18T17:03:42.461Z,67.30
2023-05-18T17:07:19.612Z,67.18
2023-05-18T17:10:57.830Z,67.82
2023-05-18T17:14:34.513Z,67.52
2023-05-18T17:18:12.284Z,68.00
2023-05-18T17:21:50.131Z,68.52
2023-05-18T17:25:27.959Z,68.98
2023-05-18T17:29:05.748Z,69.64
2023-05-18T17:32:45.658Z,69.10
2023-05-18T17:36:21.391Z,68.73
2023-05-18T17:39:58.550Z,68.57
2023-05-18T17:43:36.158Z,69.62
2023-05-18T17:47:13.710Z,69.06
2023-05-18T17:50:53.351Z,69.58
2023-05-18T17:54:29.569Z,69.39
2023-05-18T17:58:06.817Z,70.35
2023-05-18T18:01:49.012Z,70.51
2023-05-18T18:05:33.183Z,70.53
2023-05-18T18:12:50.733Z,70.27
2023-05-18T18:16:31.977Z,69.92
2023-05-18T18:20:01.646Z,70.27
2023-05-18T18:23:30.831Z,70.91
2023-05-18T18:27:09.104Z,71.05
2023-05-18T18:30:47.392Z,70.98
2023-05-18T18:34:24.018Z,70.84
2023-05-18T18:38:01.817Z,70.73
2023-05-18T18:41:40.102Z,70.54
2023-05-18T18:45:17.237Z,70.64
2023-05-18T18:48:55.294Z,70.69
2023-05-18T18:52:32.746Z,71.04
2023-05-18T18:56:10.088Z,71.22
2023-05-18T18:59:47.837Z,70.98
2023-05-18T19:03:26.402Z,71.08
2023-05-18T19:07:03.719Z,72.17
2023-05-18T19:10:41.105Z,72.35
2023-05-18T19:14:18.726Z,71.76
2023-05-18T19:17:56.693Z,71.87
2023-05-18T19:21:33.888Z,72.12
2023-05-18T19:25:11.617Z,73.21
2023-05-18T19:28:49.160Z,73.65
2023-05-18T19:32:26.931Z,74.34
2023-05-18T19:36:04.831Z,74.56
2023-05-18T19:39:42.518Z,74.58
2023-05-18T19:43:20.232Z,74.81
2023-05-18T19:46:57.384Z,74.12
2023-05-18T19:50:36.100Z,73.81
2023-05-18T19:54:12.709Z,74.26
2023-05-18T19:58:47.671Z,74.43
2023-05-18T20:02:14.589Z,75.19
2023-05-18T20:05:51.630Z,74.89
2023-05-18T20:09:30.467Z,75.26
2023-05-18T20:13:01.033Z,74.55
2023-05-18T20:16:40.859Z,74.71
2023-05-18T20:20:16.295Z,74.69
2023-05-18T20:23:51.511Z,74.74
2023-05-18T20:27:30.822Z,74.60
2023-05-18T20:31:10.730Z,74.51
2023-05-18T20:34:45.648Z,74.48
2023-05-18T20:38:25.838Z,74.18
2023-05-18T20:42:00.329Z,74.26
2023-05-18T20:45:38.066Z,74.14
2023-05-18T20:49:16.526Z,73.85
2023-05-18T20:52:53.510Z,74.36
2023-05-18T20:56:31.553Z,74.57
2023-05-18T21:00:09.693Z,74.28
2023-05-18T21:03:46.416Z,74.64
2023-05-18T21:07:26.428Z,74.88
2023-05-18T21:11:01.573Z,74.83
2023-05-18T21:14:39.392Z,74.82
2023-05-18T21:18:17.153Z,74.46
2023-05-18T21:21:54.397Z,75.17
2023-05-18T21:25:31.950Z,75.47
2023-05-18T21:29:10.127Z,75.15
2023-05-18T21:32:48.624Z,75.52
2023-05-18T21:36:36.390Z,75.33
2023-05-18T21:40:03.547Z,75.65
2023-05-18T21:43:40.764Z,75.38
2023-05-18T21:47:18.321Z,75.03
2023-05-18T21:50:56.135Z,75.18
2023-05-18T21:54:35.533Z,75.40
2023-05-18T21:58:11.567Z,75.33
2023-05-18T22:01:48.718Z,76.17
2023-05-18T22:05:26.768Z,76.89
2023-05-18T22:09:04.521Z,76.65
2023-05-18T22:12:43.695Z,76.56
2023-05-18T22:16:19.579Z,76.38
2023-05-18T22:19:58.210Z,76.10
2023-05-18T22:23:35.038Z,75.29
2023-05-18T22:27:13.366Z,76.00
2023-05-18T22:30:52.865Z,76.73
2023-05-18T22:34:28.032Z,76.70
2023-05-18T22:38:06.012Z,76.68
2023-05-18T22:41:43.672Z,76.78
2023-05-18T22:49:16.173Z,76.59
2023-05-18T22:52:54.570Z,76.43
2023-05-18T23:00:29.005Z,75.79
2023-05-18T23:04:24.908Z,75.94
2023-05-18T23:07:52.246Z,75.39
2023-05-18T23:12:07.915Z,75.84
2023-05-18T23:16:05.777Z,76.48
2023-05-18T23:19:49.967Z,76.70
2023-05-18T23:23:17.360Z,76.28
2023-05-18T23:27:19.504Z,76.56
2023-05-18T23:30:34.043Z,76.18
2023-05-18T23:38:52.001Z,76.45
2023-05-18T23:42:45.511Z,77.00
2023-05-18T23:47:09.792Z,77.71
2023-05-18T23:58:53.155Z,79.30
